sensor_id;sensor_type;location;lat;lon;timestamp;pressure;altitude;pressure_sealevel;temperature;humidity
29385;BME280;16367;48.736;9.218;2023-03-20T00:02:02;28262.31;;;8.35;100.00
29385;BME280;16367;48.736;9.218;2023-03-20T00:04:07;31854.59;;;8.57;100.00
29385;BME280;16367;48.736;9.218;2023-03-20T00:06:14;23069.53;;;8.54;100.00
29385;BME280;16367;48.736;9.218;2023-03-20T00:08:17;15279.63;;;8.57;100.00
29385;BME280;16367;48.736;9.218;2023-03-20T00:10:25;12038.44;;;8.59;100.00
29385;BME280;16367;48.736;9.218;2023-03-20T00:12:28;67.16;;;8.59;100.00
29385;BME280;16367;48.736;9.218;2023-03-20T00:14:33;-8967.47;;;8.58;100.00
29385;BME280;16367;48.736;9.218;2023-03-20T00:16:37;-20498.91;;;8.47;100.00
29385;BME280;16367;48.736;9.218;2023-03-20T00:18:40;-23436.59;;;8.48;100.00
29385;BME280;16367;48.736;9.218;2023-03-20T00:20:43;-23437.41;;;8.51;100.00
29385;BME280;16367;48.736;9.218;2023-03-20T00:22:46;-23442.16;;;8.66;100.00
29385;BME280;16367;48.736;9.218;2023-03-20T00:24:48;-23438.81;;;8.55;100.00
29385;BME280;16367;48.736;9.218;2023-03-20T00:26:53;-23441.69;;;8.64;100.00
29385;BME280;16367;48.736;9.218;2023-03-20T00:28:56;-23442.31;;;8.66;100.00
29385;BME280;16367;48.736;9.218;2023-03-20T00:30:58;-23441.84;;;8.65;100.00
29385;BME280;16367;48.736;9.218;2023-03-20T00:33:01;-23439.78;;;8.58;100.00
29385;BME280;16367;48.736;9.218;2023-03-20T00:35:15;-23433.09;;;8.37;100.00
29385;BME280;16367;48.736;9.218;2023-03-20T00:37:18;-23433.28;;;8.38;100.00
29385;BME280;16367;48.736;9.218;2023-03-20T00:39:21;-23429.44;;;8.25;100.00
29385;BME280;16367;48.736;9.218;2023-03-20T00:41:26;-23433.59;;;8.39;100.00
29385;BME280;16367;48.736;9.218;2023-03-20T00:43:31;-23427.38;;;8.19;100.00
29385;BME280;16367;48.736;9.218;2023-03-20T00:45:34;-23429.13;;;8.24;100.00
29385;BME280;16367;48.736;9.218;2023-03-20T00:47:37;-22637.75;;;8.09;100.00
29385;BME280;16367;48.736;9.218;2023-03-20T00:49:41;-6386.22;;;8.05;100.00
29385;BME280;16367;48.736;9.218;2023-03-20T00:51:46;5554.50;;;8.04;100.00
29385;BME280;16367;48.736;9.218;2023-03-20T00:53:49;15586.53;;;8.02;100.00
29385;BME280;16367;48.736;9.218;2023-03-20T00:55:51;21101.06;;;8.06;100.00
29385;BME280;16367;48.736;9.218;2023-03-20T00:57:56;25317.91;;;7.97;100.00
29385;BME280;16367;48.736;9.218;2023-03-20T01:00:04;26294.78;;;8.02;100.00
29385;BME280;16367;48.736;9.218;2023-03-20T01:02:08;29868.78;;;7.98;100.00
29385;BME280;16367;48.736;9.218;2023-03-20T01:04:15;31815.28;;;7.89;100.00
29385;BME280;16367;48.736;9.218;2023-03-20T01:06:19;37672.88;;;7.85;100.00
29385;BME280;16367;48.736;9.218;2023-03-20T01:08:23;42232.13;;;7.79;100.00
29385;BME280;16367;48.736;9.218;2023-03-20T01:10:29;48432.81;;;7.78;100.00
29385;BME280;16367;48.736;9.218;2023-03-20T01:12:33;52353.63;;;7.77;100.00
29385;BME280;16367;48.736;9.218;2023-03-20T01:14:36;54964.91;;;7.72;100.00
29385;BME280;16367;48.736;9.218;2023-03-20T01:16:40;56275.72;;;7.74;100.00
29385;BME280;16367;48.736;9.218;2023-03-20T01:18:43;55621.72;;;7.74;100.00
29385;BME280;16367;48.736;9.218;2023-03-20T01:20:46;55617.78;;;7.70;100.00
29385;BME280;16367;48.736;9.218;2023-03-20T01:22:49;53656.03;;;7.71;100.00
29385;BME280;16367;48.736;9.218;2023-03-20T01:24:52;50716.44;;;7.74;100.00
29385;BME280;16367;48.736;9.218;2023-03-20T01:26:55;47773.19;;;7.71;100.00
29385;BME280;16367;48.736;9.218;2023-03-20T01:28:58;45490.00;;;7.73;100.00
29385;BME280;16367;48.736;9.218;2023-03-20T01:31:01;44838.50;;;7.75;100.00
29385;BME280;16367;48.736;9.218;2023-03-20T01:33:11;46146.13;;;7.77;100.00
29385;BME280;16367;48.736;9.218;2023-03-20T01:35:17;43859.25;;;7.74;100.00
29385;BME280;16367;48.736;9.218;2023-03-20T01:37:23;41896.97;;;7.67;100.00
29385;BME280;16367;48.736;9.218;2023-03-20T01:39:30;41244.16;;;7.66;100.00
29385;BME280;16367;48.736;9.218;2023-03-20T01:41:34;41567.19;;;7.62;100.00
29385;BME280;16367;48.736;9.218;2023-03-20T01:43:36;40265.97;;;7.66;100.00
29385;BME280;16367;48.736;9.218;2023-03-20T01:45:46;37982.88;;;7.62;100.00
29385;BME280;16367;48.736;9.218;2023-03-20T01:47:51;35706.25;;;7.66;100.00
29385;BME280;16367;48.736;9.218;2023-03-20T01:50:22;30179.47;;;7.72;100.00
29385;BME280;16367;48.736;9.218;2023-03-20T01:52:26;24982.22;;;7.74;100.00
29385;BME280;16367;48.736;9.218;2023-03-20T01:54:31;13635.28;;;7.76;100.00
29385;BME280;16367;48.736;9.218;2023-03-20T01:56:38;2968.06;;;7.91;100.00
29385;BME280;16367;48.736;9.218;2023-03-20T01:58:44;-15716.13;;;7.88;100.00
29385;BME280;16367;48.736;9.218;2023-03-20T02:00:49;-23416.28;;;7.84;100.00
29385;BME280;16367;48.736;9.218;2023-03-20T02:02:52;-23418.34;;;7.90;100.00
29385;BME280;16367;48.736;9.218;2023-03-20T02:04:58;-23415.78;;;7.82;100.00
29385;BME280;16367;48.736;9.218;2023-03-20T02:07:06;-23417.22;;;7.87;100.00
29385;BME280;16367;48.736;9.218;2023-03-20T02:09:10;-23418.03;;;7.89;100.00
29385;BME280;16367;48.736;9.218;2023-03-20T02:11:14;-23418.81;;;7.92;100.00
29385;BME280;16367;48.736;9.218;2023-03-20T02:13:18;-23422.63;;;8.04;100.00
29385;BME280;16367;48.736;9.218;2023-03-20T02:15:21;-23418.50;;;7.91;100.00
29385;BME280;16367;48.736;9.218;2023-03-20T02:17:23;-23417.22;;;7.87;100.00
29385;BME280;16367;48.736;9.218;2023-03-20T02:19:30;-23423.41;;;8.06;100.00
29385;BME280;16367;48.736;9.218;2023-03-20T02:22:05;-23427.38;;;8.19;100.00
29385;BME280;16367;48.736;9.218;2023-03-20T02:24:35;-23423.09;;;8.05;100.00
29385;BME280;16367;48.736;9.218;2023-03-20T02:26:54;-23424.22;;;8.09;100.00
29385;BME280;16367;48.736;9.218;2023-03-20T02:32:17;-23425.00;;;8.11;100.00
29385;BME280;16367;48.736;9.218;2023-03-20T02:34:52;-23424.38;;;8.09;100.00
29385;BME280;16367;48.736;9.218;2023-03-20T02:39:51;-23424.06;;;8.08;100.00
29385;BME280;16367;48.736;9.218;2023-03-20T02:41:59;-23426.28;;;8.15;100.00
29385;BME280;16367;48.736;9.218;2023-03-20T02:44:11;-23426.91;;;8.17;100.00
29385;BME280;16367;48.736;9.218;2023-03-20T02:46:25;-23429.13;;;8.24;100.00
29385;BME280;16367;48.736;9.218;2023-03-20T02:48:38;-23425.00;;;8.11;100.00
29385;BME280;16367;48.736;9.218;2023-03-20T02:50:48;-23427.22;;;8.18;100.00
29385;BME280;16367;48.736;9.218;2023-03-20T02:52:59;-23424.38;;;8.09;100.00
29385;BME280;16367;48.736;9.218;2023-03-20T02:55:10;-23420.25;;;7.96;100.00
29385;BME280;16367;48.736;9.218;2023-03-20T02:57:19;-23421.19;;;7.99;100.00
29385;BME280;16367;48.736;9.218;2023-03-20T02:59:28;-23419.75;;;7.95;100.00
29385;BME280;16367;48.736;9.218;2023-03-20T03:01:35;-23420.72;;;7.98;100.00
29385;BME280;16367;48.736;9.218;2023-03-20T03:03:45;-23421.19;;;7.99;100.00
29385;BME280;16367;48.736;9.218;2023-03-20T03:05:53;-23421.19;;;7.99;100.00
29385;BME280;16367;48.736;9.218;2023-03-20T03:07:59;-23425.97;;;8.14;100.00
29385;BME280;16367;48.736;9.218;2023-03-20T03:10:04;-23422.63;;;8.04;100.00
29385;BME280;16367;48.736;9.218;2023-03-20T03:12:11;-23423.72;;;8.07;100.00
29385;BME280;16367;48.736;9.218;2023-03-20T03:14:30;-23419.94;;;7.95;100.00
29385;BME280;16367;48.736;9.218;2023-03-20T03:16:36;-23421.81;;;8.01;100.00
29385;BME280;16367;48.736;9.218;2023-03-20T03:18:40;-23424.06;;;8.08;100.00
29385;BME280;16367;48.736;9.218;2023-03-20T03:20:45;-23417.06;;;7.86;100.00
29385;BME280;16367;48.736;9.218;2023-03-20T03:22:49;-23419.59;;;7.94;100.00
29385;BME280;16367;48.736;9.218;2023-03-20T03:24:54;-23421.66;;;8.01;100.00
29385;BME280;16367;48.736;9.218;2023-03-20T03:26:57;-23422.16;;;8.02;100.00
29385;BME280;16367;48.736;9.218;2023-03-20T03:29:03;-23421.50;;;8.00;100.00
29385;BME280;16367;48.736;9.218;2023-03-20T03:31:11;-23421.34;;;8.00;100.00
29385;BME280;16367;48.736;9.218;2023-03-20T03:33:18;-23421.50;;;8.00;100.00
29385;BME280;16367;48.736;9.218;2023-03-20T03:35:22;-23424.06;;;8.08;100.00
29385;BME280;16367;48.736;9.218;2023-03-20T03:37:34;-23422.31;;;8.03;100.00
29385;BME280;16367;48.736;9.218;2023-03-20T03:39:42;-23418.97;;;7.92;100.00
29385;BME280;16367;48.736;9.218;2023-03-20T03:41:51;-23420.09;;;7.96;100.00
29385;BME280;16367;48.736;9.218;2023-03-20T03:44:01;-23424.22;;;8.09;100.00
29385;BME280;16367;48.736;9.218;2023-03-20T03:46:10;-23421.50;;;8.00;100.00
29385;BME280;16367;48.736;9.218;2023-03-20T03:48:17;-23417.22;;;7.87;100.00
29385;BME280;16367;48.736;9.218;2023-03-20T03:50:24;-23417.38;;;7.87;100.00
29385;BME280;16367;48.736;9.218;2023-03-20T03:52:30;-23418.66;;;7.91;100.00
29385;BME280;16367;48.736;9.218;2023-03-20T03:54:36;-23420.88;;;7.98;100.00
29385;BME280;16367;48.736;9.218;2023-03-20T03:56:43;-23417.06;;;7.86;100.00
29385;BME280;16367;48.736;9.218;2023-03-20T03:58:52;-23421.50;;;8.00;100.00
29385;BME280;16367;48.736;9.218;2023-03-20T04:00:58;-23415.47;;;7.81;100.00
29385;BME280;16367;48.736;9.218;2023-03-20T04:03:04;-23416.91;;;7.86;100.00
29385;BME280;16367;48.736;9.218;2023-03-20T04:05:08;-23418.50;;;7.91;100.00
29385;BME280;16367;48.736;9.218;2023-03-20T04:07:12;-23413.88;;;7.76;100.00
29385;BME280;16367;48.736;9.218;2023-03-20T04:09:15;-23416.75;;;7.85;100.00
29385;BME280;16367;48.736;9.218;2023-03-20T04:11:19;-23414.69;;;7.79;100.00
29385;BME280;16367;48.736;9.218;2023-03-20T04:13:22;-23414.53;;;7.78;100.00
29385;BME280;16367;48.736;9.218;2023-03-20T04:15:26;-23414.84;;;7.79;100.00
29385;BME280;16367;48.736;9.218;2023-03-20T04:17:29;-23418.50;;;7.91;100.00
29385;BME280;16367;48.736;9.218;2023-03-20T04:19:32;-23416.75;;;7.85;100.00
29385;BME280;16367;48.736;9.218;2023-03-20T04:21:34;-23417.06;;;7.86;100.00
29385;BME280;16367;48.736;9.218;2023-03-20T04:23:37;-23417.69;;;7.88;100.00
29385;BME280;16367;48.736;9.218;2023-03-20T04:25:40;-23418.66;;;7.91;100.00
29385;BME280;16367;48.736;9.218;2023-03-20T04:27:43;-23415.97;;;7.83;100.00
29385;BME280;16367;48.736;9.218;2023-03-20T04:29:45;-23413.88;;;7.76;100.00
29385;BME280;16367;48.736;9.218;2023-03-20T04:31:49;-23413.09;;;7.74;100.00
29385;BME280;16367;48.736;9.218;2023-03-20T04:33:52;-23410.72;;;7.66;100.00
29385;BME280;16367;48.736;9.218;2023-03-20T04:35:55;-23409.91;;;7.64;100.00
29385;BME280;16367;48.736;9.218;2023-03-20T04:37:58;-23412.13;;;7.71;100.00
29385;BME280;16367;48.736;9.218;2023-03-20T04:40:01;-23408.50;;;7.59;100.00
29385;BME280;16367;48.736;9.218;2023-03-20T04:42:05;-23410.56;;;7.66;100.00
29385;BME280;16367;48.736;9.218;2023-03-20T04:44:08;-23409.75;;;7.63;100.00
29385;BME280;16367;48.736;9.218;2023-03-20T04:46:10;-23412.13;;;7.71;100.00
29385;BME280;16367;48.736;9.218;2023-03-20T04:48:14;-23415.16;;;7.80;100.00
29385;BME280;16367;48.736;9.218;2023-03-20T04:50:17;-23414.38;;;7.78;100.00
29385;BME280;16367;48.736;9.218;2023-03-20T04:52:20;-23411.97;;;7.70;100.00
29385;BME280;16367;48.736;9.218;2023-03-20T04:54:24;-23413.25;;;7.74;100.00
29385;BME280;16367;48.736;9.218;2023-03-20T04:56:26;-23415.16;;;7.80;100.00
29385;BME280;16367;48.736;9.218;2023-03-20T04:58:29;-23412.94;;;7.73;100.00
29385;BME280;16367;48.736;9.218;2023-03-20T05:00:32;-23411.97;;;7.70;100.00
29385;BME280;16367;48.736;9.218;2023-03-20T05:02:35;-23411.34;;;7.68;100.00
29385;BME280;16367;48.736;9.218;2023-03-20T05:04:40;-23412.31;;;7.71;100.00
29385;BME280;16367;48.736;9.218;2023-03-20T05:06:42;-23411.97;;;7.70;100.00
29385;BME280;16367;48.736;9.218;2023-03-20T05:08:48;-23411.66;;;7.69;100.00
29385;BME280;16367;48.736;9.218;2023-03-20T05:10:51;-23413.88;;;7.76;100.00
29385;BME280;16367;48.736;9.218;2023-03-20T05:12:54;-23414.84;;;7.79;100.00
29385;BME280;16367;48.736;9.218;2023-03-20T05:14:56;-23411.66;;;7.69;100.00
29385;BME280;16367;48.736;9.218;2023-03-20T05:16:59;-23416.75;;;7.85;100.00
29385;BME280;16367;48.736;9.218;2023-03-20T05:19:02;-23417.69;;;7.88;100.00
29385;BME280;16367;48.736;9.218;2023-03-20T05:21:07;-23414.84;;;7.79;100.00
29385;BME280;16367;48.736;9.218;2023-03-20T05:23:09;-23414.53;;;7.78;100.00
29385;BME280;16367;48.736;9.218;2023-03-20T05:25:12;-23414.22;;;7.77;100.00
29385;BME280;16367;48.736;9.218;2023-03-20T05:27:15;-23412.94;;;7.73;100.00
29385;BME280;16367;48.736;9.218;2023-03-20T05:29:18;-23416.28;;;7.84;100.00
29385;BME280;16367;48.736;9.218;2023-03-20T05:31:20;-23415.63;;;7.82;100.00
29385;BME280;16367;48.736;9.218;2023-03-20T05:33:23;-23416.75;;;7.85;100.00
29385;BME280;16367;48.736;9.218;2023-03-20T05:35:26;-23417.06;;;7.86;100.00
29385;BME280;16367;48.736;9.218;2023-03-20T05:37:30;-23414.84;;;7.79;100.00
29385;BME280;16367;48.736;9.218;2023-03-20T05:39:33;-23413.25;;;7.74;100.00
29385;BME280;16367;48.736;9.218;2023-03-20T05:41:35;-23419.28;;;7.93;100.00
29385;BME280;16367;48.736;9.218;2023-03-20T05:43:38;-23418.03;;;7.89;100.00
29385;BME280;16367;48.736;9.218;2023-03-20T05:45:41;-23417.06;;;7.86;100.00
29385;BME280;16367;48.736;9.218;2023-03-20T05:47:44;-23415.97;;;7.83;100.00
29385;BME280;16367;48.736;9.218;2023-03-20T05:49:47;-23410.88;;;7.67;100.00
29385;BME280;16367;48.736;9.218;2023-03-20T05:51:49;-23410.06;;;7.64;100.00
29385;BME280;16367;48.736;9.218;2023-03-20T05:53:53;-23411.97;;;7.70;100.00
29385;BME280;16367;48.736;9.218;2023-03-20T05:55:56;-23415.47;;;7.81;100.00
29385;BME280;16367;48.736;9.218;2023-03-20T05:57:59;-23415.16;;;7.80;100.00
29385;BME280;16367;48.736;9.218;2023-03-20T06:00:02;-23414.22;;;7.77;100.00
29385;BME280;16367;48.736;9.218;2023-03-20T06:02:05;-23411.34;;;7.68;100.00
29385;BME280;16367;48.736;9.218;2023-03-20T06:04:08;-23411.97;;;7.70;100.00
29385;BME280;16367;48.736;9.218;2023-03-20T06:06:11;-23414.22;;;7.77;100.00
29385;BME280;16367;48.736;9.218;2023-03-20T06:08:14;-23415.78;;;7.82;100.00
29385;BME280;16367;48.736;9.218;2023-03-20T06:10:18;-23419.94;;;7.95;100.00
29385;BME280;16367;48.736;9.218;2023-03-20T06:12:21;-23415.00;;;7.80;100.00
29385;BME280;16367;48.736;9.218;2023-03-20T06:14:24;-23419.28;;;7.93;100.00
29385;BME280;16367;48.736;9.218;2023-03-20T06:16:27;-23415.31;;;7.81;100.00
29385;BME280;16367;48.736;9.218;2023-03-20T06:18:29;-23414.38;;;7.78;100.00
29385;BME280;16367;48.736;9.218;2023-03-20T06:20:32;-23416.09;;;7.83;100.00
29385;BME280;16367;48.736;9.218;2023-03-20T06:22:35;-23416.09;;;7.83;100.00
29385;BME280;16367;48.736;9.218;2023-03-20T06:24:38;-23421.81;;;8.01;100.00
29385;BME280;16367;48.736;9.218;2023-03-20T06:26:42;-23418.66;;;7.91;100.00
29385;BME280;16367;48.736;9.218;2023-03-20T06:28:45;-23421.19;;;7.99;100.00
29385;BME280;16367;48.736;9.218;2023-03-20T06:30:50;-23421.81;;;8.01;100.00
29385;BME280;16367;48.736;9.218;2023-03-20T06:32:53;-23421.50;;;8.00;100.00
29385;BME280;16367;48.736;9.218;2023-03-20T06:34:56;-23425.16;;;8.12;100.00
29385;BME280;16367;48.736;9.218;2023-03-20T06:36:59;-23424.22;;;8.09;100.00
29385;BME280;16367;48.736;9.218;2023-03-20T06:39:02;-23418.34;;;7.90;100.00
29385;BME280;16367;48.736;9.218;2023-03-20T06:41:05;-23417.06;;;7.86;100.00
29385;BME280;16367;48.736;9.218;2023-03-20T06:43:10;-23420.25;;;7.96;100.00
29385;BME280;16367;48.736;9.218;2023-03-20T06:45:13;-23421.03;;;7.99;100.00
29385;BME280;16367;48.736;9.218;2023-03-20T06:47:16;-23420.56;;;7.97;100.00
29385;BME280;16367;48.736;9.218;2023-03-20T06:49:19;-23425.31;;;8.12;100.00
29385;BME280;16367;48.736;9.218;2023-03-20T06:51:21;-23428.81;;;8.23;100.00
29385;BME280;16367;48.736;9.218;2023-03-20T06:53:24;-23427.22;;;8.18;100.00
29385;BME280;16367;48.736;9.218;2023-03-20T06:55:27;-23426.59;;;8.16;100.00
29385;BME280;16367;48.736;9.218;2023-03-20T06:57:30;-23428.19;;;8.21;100.00
29385;BME280;16367;48.736;9.218;2023-03-20T06:59:34;-23428.66;;;8.23;100.00
29385;BME280;16367;48.736;9.218;2023-03-20T07:01:37;-23432.31;;;8.35;100.00
29385;BME280;16367;48.736;9.218;2023-03-20T07:03:40;-23433.09;;;8.37;100.00
29385;BME280;16367;48.736;9.218;2023-03-20T07:05:42;-23434.22;;;8.41;100.00
29385;BME280;16367;48.736;9.218;2023-03-20T07:07:45;-23436.28;;;8.47;100.00
29385;BME280;16367;48.736;9.218;2023-03-20T07:09:48;-23438.66;;;8.55;100.00
29385;BME280;16367;48.736;9.218;2023-03-20T07:11:51;-23438.97;;;8.56;100.00
29385;BME280;16367;48.736;9.218;2023-03-20T07:13:54;-23443.75;;;8.71;100.00
29385;BME280;16367;48.736;9.218;2023-03-20T07:15:59;-23446.75;;;8.80;100.00
29385;BME280;16367;48.736;9.218;2023-03-20T07:18:05;-23454.84;;;9.06;100.00
29385;BME280;16367;48.736;9.218;2023-03-20T07:20:09;-23447.53;;;8.83;100.00
29385;BME280;16367;48.736;9.218;2023-03-20T07:22:18;-23447.53;;;8.83;100.00
29385;BME280;16367;48.736;9.218;2023-03-20T07:24:22;-23448.19;;;8.85;100.00
29385;BME280;16367;48.736;9.218;2023-03-20T07:26:25;-23454.06;;;9.04;100.00
29385;BME280;16367;48.736;9.218;2023-03-20T07:28:27;-23455.16;;;9.07;100.00
29385;BME280;16367;48.736;9.218;2023-03-20T07:30:31;-23452.47;;;8.98;100.00
29385;BME280;16367;48.736;9.218;2023-03-20T07:32:35;-23452.31;;;8.98;100.00
29385;BME280;16367;48.736;9.218;2023-03-20T07:34:38;-23450.09;;;8.91;100.00
29385;BME280;16367;48.736;9.218;2023-03-20T07:36:41;-23448.19;;;8.85;100.00
29385;BME280;16367;48.736;9.218;2023-03-20T07:38:44;-23446.59;;;8.80;100.00
29385;BME280;16367;48.736;9.218;2023-03-20T07:40:47;-23446.28;;;8.79;100.00
29385;BME280;16367;48.736;9.218;2023-03-20T07:42:50;-23452.63;;;8.99;100.00
29385;BME280;16367;48.736;9.218;2023-03-20T07:44:53;-23450.72;;;8.93;100.00
29385;BME280;16367;48.736;9.218;2023-03-20T07:46:55;-23451.03;;;8.94;100.00
29385;BME280;16367;48.736;9.218;2023-03-20T07:48:59;-23455.78;;;9.09;100.00
29385;BME280;16367;48.736;9.218;2023-03-20T07:51:02;-23456.28;;;9.11;100.00
29385;BME280;16367;48.736;9.218;2023-03-20T07:53:05;-23461.03;;;9.26;100.00
29385;BME280;16367;48.736;9.218;2023-03-20T07:55:08;-23464.69;;;9.37;100.00
29385;BME280;16367;48.736;9.218;2023-03-20T07:57:11;-23466.91;;;9.44;100.00
29385;BME280;16367;48.736;9.218;2023-03-20T07:59:14;-23470.69;;;9.56;100.00
29385;BME280;16367;48.736;9.218;2023-03-20T08:01:17;-23464.69;;;9.37;100.00
29385;BME280;16367;48.736;9.218;2023-03-20T08:03:20;-23465.47;;;9.40;100.00
29385;BME280;16367;48.736;9.218;2023-03-20T08:05:24;-23500.50;;;10.51;100.00
29385;BME280;16367;48.736;9.218;2023-03-20T08:07:27;-23507.16;;;10.72;100.00
29385;BME280;16367;48.736;9.218;2023-03-20T08:09:30;-23500.97;;;10.53;100.00
29385;BME280;16367;48.736;9.218;2023-03-20T08:11:33;-23496.38;;;10.38;100.00
29385;BME280;16367;48.736;9.218;2023-03-20T08:13:35;-23489.41;;;10.16;100.00
29385;BME280;16367;48.736;9.218;2023-03-20T08:15:39;-23494.81;;;10.33;100.00
29385;BME280;16367;48.736;9.218;2023-03-20T08:17:42;-23495.91;;;10.36;100.00
29385;BME280;16367;48.736;9.218;2023-03-20T08:19:45;-23500.19;;;10.50;100.00
29385;BME280;16367;48.736;9.218;2023-03-20T08:21:49;-23502.25;;;10.57;100.00
29385;BME280;16367;48.736;9.218;2023-03-20T08:23:52;-23483.06;;;9.96;100.00
29385;BME280;16367;48.736;9.218;2023-03-20T08:25:55;-23479.75;;;9.85;100.00
29385;BME280;16367;48.736;9.218;2023-03-20T08:27:59;-23491.00;;;10.21;100.00
29385;BME280;16367;48.736;9.218;2023-03-20T08:30:02;-23492.59;;;10.26;100.00
29385;BME280;16367;48.736;9.218;2023-03-20T08:32:05;-23488.78;;;10.14;100.00
29385;BME280;16367;48.736;9.218;2023-03-20T08:34:08;-23487.19;;;10.09;100.00
29385;BME280;16367;48.736;9.218;2023-03-20T08:36:11;-23484.97;;;10.02;100.00
29385;BME280;16367;48.736;9.218;2023-03-20T08:38:17;-23491.78;;;10.23;100.00
29385;BME280;16367;48.736;9.218;2023-03-20T08:40:20;-23499.06;;;10.46;100.00
29385;BME280;16367;48.736;9.218;2023-03-20T08:42:22;-23506.69;;;10.71;100.00
29385;BME280;16367;48.736;9.218;2023-03-20T08:44:25;-23494.97;;;10.33;100.00
29385;BME280;16367;48.736;9.218;2023-03-20T08:46:28;-23500.19;;;10.50;100.00
29385;BME280;16367;48.736;9.218;2023-03-20T08:48:31;-23499.72;;;10.48;100.00
29385;BME280;16367;48.736;9.218;2023-03-20T08:50:34;-23500.81;;;10.52;100.00
29385;BME280;16367;48.736;9.218;2023-03-20T08:52:37;-23500.50;;;10.51;97.77
29385;BME280;16367;48.736;9.218;2023-03-20T08:54:45;-23504.63;;;10.64;97.60
29385;BME280;16367;48.736;9.218;2023-03-20T08:56:48;-23503.69;;;10.61;97.59
29385;BME280;16367;48.736;9.218;2023-03-20T08:58:50;-23500.50;;;10.51;98.09
29385;BME280;16367;48.736;9.218;2023-03-20T09:00:56;-23507.47;;;10.73;96.75
29385;BME280;16367;48.736;9.218;2023-03-20T09:03:03;-23502.88;;;10.59;96.60
29385;BME280;16367;48.736;9.218;2023-03-20T09:05:07;-23509.06;;;10.78;94.20
29385;BME280;16367;48.736;9.218;2023-03-20T09:07:10;-23518.41;;;11.08;94.94
29385;BME280;16367;48.736;9.218;2023-03-20T09:09:12;-23518.25;;;11.07;92.31
29385;BME280;16367;48.736;9.218;2023-03-20T09:11:17;-23510.16;;;10.82;91.27
29385;BME280;16367;48.736;9.218;2023-03-20T09:13:20;-23529.66;;;11.44;90.91
29385;BME280;16367;48.736;9.218;2023-03-20T09:15:28;-23527.13;;;11.36;87.63
29385;BME280;16367;48.736;9.218;2023-03-20T09:17:31;-23541.34;;;11.81;87.45
29385;BME280;16367;48.736;9.218;2023-03-20T09:19:33;-23544.84;;;11.92;88.22
29385;BME280;16367;48.736;9.218;2023-03-20T09:21:39;-23548.16;;;12.03;87.09
29385;BME280;16367;48.736;9.218;2023-03-20T09:23:42;-23532.34;;;11.52;88.89
29385;BME280;16367;48.736;9.218;2023-03-20T09:25:45;-23534.72;;;11.60;85.19
29385;BME280;16367;48.736;9.218;2023-03-20T09:27:51;-23551.34;;;12.13;82.56
29385;BME280;16367;48.736;9.218;2023-03-20T09:29:55;-23533.13;;;11.55;82.70
29385;BME280;16367;48.736;9.218;2023-03-20T09:31:58;-23545.31;;;11.93;83.96
29385;BME280;16367;48.736;9.218;2023-03-20T09:34:01;-23536.28;;;11.65;83.39
29385;BME280;16367;48.736;9.218;2023-03-20T09:36:04;-23531.53;;;11.50;84.87
29385;BME280;16367;48.736;9.218;2023-03-20T09:38:08;-23526.78;;;11.35;83.33
29385;BME280;16367;48.736;9.218;2023-03-20T09:40:22;-23525.06;;;11.29;83.84
29385;BME280;16367;48.736;9.218;2023-03-20T09:42:34;-23536.78;;;11.66;81.79
29385;BME280;16367;48.736;9.218;2023-03-20T09:44:52;-23537.25;;;11.68;80.92
29385;BME280;16367;48.736;9.218;2023-03-20T09:47:08;-23529.47;;;11.43;82.82
29385;BME280;16367;48.736;9.218;2023-03-20T09:49:32;-23536.44;;;11.65;81.92
29385;BME280;16367;48.736;9.218;2023-03-20T09:51:41;-23541.03;;;11.80;81.62
29385;BME280;16367;48.736;9.218;2023-03-20T09:53:48;-23539.94;;;11.76;79.41
29385;BME280;16367;48.736;9.218;2023-03-20T09:55:56;-23544.84;;;11.92;82.51
29385;BME280;16367;48.736;9.218;2023-03-20T09:58:03;-23565.09;;;12.56;81.42
29385;BME280;16367;48.736;9.218;2023-03-20T10:00:15;-23569.34;;;12.70;79.70
29385;BME280;16367;48.736;9.218;2023-03-20T10:02:34;-23571.41;;;12.77;77.95
29385;BME280;16367;48.736;9.218;2023-03-20T10:04:38;-23579.78;;;13.03;75.14
29385;BME280;16367;48.736;9.218;2023-03-20T10:06:42;-23565.25;;;12.57;76.09
29385;BME280;16367;48.736;9.218;2023-03-20T10:08:45;-23556.72;;;12.30;76.96
29385;BME280;16367;48.736;9.218;2023-03-20T10:10:51;-23540.41;;;11.78;79.40
29385;BME280;16367;48.736;9.218;2023-03-20T10:13:07;-23547.84;;;12.02;81.40
29385;BME280;16367;48.736;9.218;2023-03-20T10:15:19;-23536.78;;;11.66;81.20
29385;BME280;16367;48.736;9.218;2023-03-20T10:17:41;-23531.69;;;11.50;80.44
29385;BME280;16367;48.736;9.218;2023-03-20T10:19:50;-23542.94;;;11.86;80.53
29385;BME280;16367;48.736;9.218;2023-03-20T10:21:59;-23541.69;;;11.82;80.19
29385;BME280;16367;48.736;9.218;2023-03-20T10:24:05;-23541.69;;;11.82;81.81
29385;BME280;16367;48.736;9.218;2023-03-20T10:26:11;-23541.84;;;11.82;81.88
29385;BME280;16367;48.736;9.218;2023-03-20T10:28:21;-23535.97;;;11.64;82.25
29385;BME280;16367;48.736;9.218;2023-03-20T10:30:48;-23532.97;;;11.54;81.50
29385;BME280;16367;48.736;9.218;2023-03-20T10:33:02;-23529.34;;;11.43;81.00
29385;BME280;16367;48.736;9.218;2023-03-20T10:35:17;-23532.97;;;11.54;80.84
29385;BME280;16367;48.736;9.218;2023-03-20T10:37:33;-23552.75;;;12.17;80.55
29385;BME280;16367;48.736;9.218;2023-03-20T10:39:50;-23547.69;;;12.01;79.59
29385;BME280;16367;48.736;9.218;2023-03-20T10:41:58;-23529.00;;;11.42;80.40
29385;BME280;16367;48.736;9.218;2023-03-20T10:44:04;-23539.94;;;11.76;80.61
29385;BME280;16367;48.736;9.218;2023-03-20T10:46:12;-23544.53;;;11.91;79.98
29385;BME280;16367;48.736;9.218;2023-03-20T10:48:20;-23536.13;;;11.64;81.13
29385;BME280;16367;48.736;9.218;2023-03-20T10:50:30;-23539.16;;;11.74;79.18
29385;BME280;16367;48.736;9.218;2023-03-20T10:52:37;-23524.09;;;11.26;79.57
29385;BME280;16367;48.736;9.218;2023-03-20T10:54:44;-23529.97;;;11.45;80.17
29385;BME280;16367;48.736;9.218;2023-03-20T10:56:50;-23525.22;;;11.30;80.78
29385;BME280;16367;48.736;9.218;2023-03-20T10:58:58;-23522.84;;;11.22;80.67
29385;BME280;16367;48.736;9.218;2023-03-20T11:01:04;-23530.28;;;11.46;81.79
29385;BME280;16367;48.736;9.218;2023-03-20T11:03:18;-23524.25;;;11.27;81.86